Time;durP1;ratioP1;P1;durP2;ratioP2;P2;SDS_P1;SDS_P2;PMS_P1;PMS_P2;Temp;Humidity;BMP_temperature;BMP_pressure;BME280_temperature;BME280_humidity;BME280_pressure;Samples;Min_cycle;Max_cycle;Signal;HPM_P1;HPM_P2
2021/12/14 00:00:21;;;;;;;51.00;25.75;;;;;;;14.52;59.71;101990.28;5115989;28;20043;-69
2021/12/14 00:02:49;;;;;;;47.40;25.98;;;;;;;14.65;59.22;101996.28;5115475;28;20123;-70
2021/12/14 00:05:19;;;;;;;52.50;26.67;;;;;;;14.71;59.30;101998.44;5116704;28;20127;-70
2021/12/14 00:07:47;;;;;;;53.00;26.48;;;;;;;14.74;59.38;102001.72;5114963;28;20126;-69
2021/12/14 00:10:32;;;;;;;52.30;27.58;;;;;;;14.81;58.89;101998.53;5115807;28;20131;-70
2021/12/14 00:13:09;;;;;;;50.17;26.73;;;;;;;14.96;58.28;102003.44;5115478;28;20130;-70
2021/12/14 00:15:36;;;;;;;50.33;26.23;;;;;;;14.16;60.49;102003.03;5115741;28;20046;-69
2021/12/14 00:18:06;;;;;;;57.22;27.55;;;;;;;14.28;60.66;102002.88;5114243;28;20474;-69
2021/12/14 00:20:40;;;;;;;47.10;26.55;;;;;;;14.17;60.78;102004.75;5096516;28;20114;-70
2021/12/14 00:25:51;;;;;;;55.92;27.42;;;;;;;14.85;58.36;101995.44;5096432;28;20127;-70
2021/12/14 00:28:28;;;;;;;46.63;27.02;;;;;;;14.80;58.49;101996.84;5096064;28;20444;-69
2021/12/14 00:30:57;;;;;;;45.83;25.30;;;;;;;14.61;58.97;101997.53;5104391;28;20131;-69
2021/12/14 00:33:30;;;;;;;49.75;25.95;;;;;;;14.35;59.68;101986.28;5098900;28;20047;-69
2021/12/14 00:35:57;;;;;;;46.25;26.67;;;;;;;14.57;58.86;101998.75;5104672;28;20126;-69
2021/12/14 00:38:24;;;;;;;51.45;26.67;;;;;;;14.74;58.37;101991.00;5103674;28;20040;-70
2021/12/14 00:40:59;;;;;;;48.80;26.00;;;;;;;14.78;58.25;101994.25;5094990;28;20119;-70
2021/12/14 00:43:26;;;;;;;51.75;26.50;;;;;;;14.22;59.72;101995.31;5112977;28;20039;-70
2021/12/14 00:45:54;;;;;;;52.30;25.83;;;;;;;14.09;60.57;101996.47;5114374;28;20564;-70
2021/12/14 00:48:21;;;;;;;50.00;26.35;;;;;;;14.16;59.64;101997.66;5116005;28;20126;-70
2021/12/14 00:50:51;;;;;;;47.55;26.40;;;;;;;14.28;59.68;101997.50;5106583;28;20500;-70
2021/12/14 00:53:19;;;;;;;47.20;26.58;;;;;;;14.38;59.56;101994.91;5094737;28;20059;-70
2021/12/14 00:55:47;;;;;;;50.53;25.70;;;;;;;14.54;59.03;101997.19;5099473;28;20136;-70
2021/12/14 00:58:14;;;;;;;41.97;25.52;;;;;;;14.29;59.50;101984.94;5107148;28;20070;-70
2021/12/14 01:00:50;;;;;;;50.10;26.17;;;;;;;14.17;59.29;101994.03;5101109;28;20127;-69
2021/12/14 01:03:17;;;;;;;50.95;26.85;;;;;;;14.55;58.90;101993.53;5095876;28;20052;-69
2021/12/14 01:05:47;;;;;;;47.63;25.08;;;;;;;14.05;59.66;101993.19;5097508;28;20043;-69
2021/12/14 01:08:19;;;;;;;47.63;26.35;;;;;;;14.43;59.08;101987.31;5115683;28;20063;-69
2021/12/14 01:10:52;;;;;;;49.13;27.00;;;;;;;14.49;59.43;101994.03;5115613;28;20074;-69
2021/12/14 01:13:23;;;;;;;47.63;26.25;;;;;;;14.28;59.29;101992.16;5115993;28;20126;-69
2021/12/14 01:16:13;;;;;;;49.20;26.75;;;;;;;13.95;60.69;101993.06;5115645;28;20114;-69
2021/12/14 01:22:16;;;;;;;46.30;25.15;;;;;;;14.41;58.95;101991.97;5116253;28;20069;-69
2021/12/14 01:24:42;;;;;;;54.08;27.20;;;;;;;14.26;59.92;101993.25;5102704;28;20442;-69
2021/12/14 01:27:12;;;;;;;53.72;26.55;;;;;;;13.88;60.57;101985.66;5112957;28;20063;-69
2021/12/14 01:29:40;;;;;;;49.70;26.92;;;;;;;13.65;60.67;101992.91;5113447;28;20050;-69
2021/12/14 01:32:07;;;;;;;50.00;26.25;;;;;;;13.99;60.26;101991.00;5113338;28;20484;-69
2021/12/14 01:34:36;;;;;;;50.17;25.77;;;;;;;14.06;59.81;101996.72;5113492;28;20480;-69
2021/12/14 01:37:20;;;;;;;50.50;26.23;;;;;;;13.89;59.54;101990.91;5113619;28;20067;-69
2021/12/14 01:42:32;;;;;;;48.00;25.95;;;;;;;14.00;60.02;101979.31;5114514;28;20595;-69
2021/12/14 01:45:17;;;;;;;49.58;25.60;;;;;;;14.16;59.39;101976.22;5113752;28;20051;-69
2021/12/14 01:47:50;;;;;;;50.35;25.58;;;;;;;13.55;61.08;101977.56;5114306;28;20043;-70
2021/12/14 01:50:26;;;;;;;51.80;24.65;;;;;;;13.45;60.92;101973.91;5113308;28;20168;-70
2021/12/14 01:52:52;;;;;;;45.83;25.92;;;;;;;14.49;58.44;101981.44;5114864;28;20067;-69
2021/12/14 01:55:29;;;;;;;51.08;26.02;;;;;;;14.15;59.62;101980.72;5114449;28;20055;-70
2021/12/14 01:57:58;;;;;;;47.55;25.02;;;;;;;14.05;59.14;101971.72;5116064;28;20055;-70
2021/12/14 02:00:33;;;;;;;48.65;25.75;;;;;;;14.04;59.61;101973.56;5114555;28;20119;-69
2021/12/14 02:03:03;;;;;;;45.17;24.60;;;;;;;14.42;58.51;101969.53;5108519;28;20044;-70
2021/12/14 02:09:13;;;;;;;39.60;23.20;;;;;;;14.19;58.49;101966.06;5117408;28;20070;-70
2021/12/14 02:11:44;;;;;;;41.50;23.33;;;;;;;14.52;57.90;101966.97;5117397;28;20071;-70
2021/12/14 02:14:11;;;;;;;45.22;24.95;;;;;;;14.50;57.73;101952.81;5116898;28;20539;-70
2021/12/14 02:16:38;;;;;;;43.80;23.90;;;;;;;14.44;57.80;101958.66;5116531;28;20550;-69
2021/12/14 02:19:10;;;;;;;39.67;23.17;;;;;;;14.53;57.58;101952.56;5116690;28;20138;-69
2021/12/14 02:21:38;;;;;;;39.20;22.75;;;;;;;14.53;57.10;101962.44;5114867;28;20509;-70
2021/12/14 02:24:07;;;;;;;37.10;21.83;;;;;;;14.44;58.26;101951.50;5116739;28;20067;-70
2021/12/14 02:26:38;;;;;;;36.13;21.58;;;;;;;14.02;59.23;101947.84;5118857;28;20118;-70
2021/12/14 02:29:06;;;;;;;40.75;22.50;;;;;;;14.01;58.18;101946.16;5119007;28;20036;-70
2021/12/14 02:31:35;;;;;;;41.08;21.48;;;;;;;13.97;59.20;101948.25;5116365;27;20464;-70
2021/12/14 02:34:05;;;;;;;41.80;22.50;;;;;;;13.79;59.41;101947.06;5115396;28;20039;-70
2021/12/14 02:36:37;;;;;;;37.50;21.08;;;;;;;13.85;58.59;101940.34;5116477;28;20188;-70
2021/12/14 02:39:11;;;;;;;36.15;21.63;;;;;;;13.87;59.26;101947.28;5116652;28;20142;-69
2021/12/14 02:41:50;;;;;;;37.33;20.52;;;;;;;14.38;57.95;101954.69;5116588;28;20439;-69
2021/12/14 02:44:17;;;;;;;38.72;21.13;;;;;;;14.26;57.84;101948.50;5084855;28;20078;-69
2021/12/14 02:46:48;;;;;;;38.90;20.52;;;;;;;14.08;58.37;101949.19;5115986;28;20067;-69
2021/12/14 02:49:18;;;;;;;24.35;14.63;;;;;;;13.72;59.23;101948.56;5113100;27;20126;-70
2021/12/14 02:51:49;;;;;;;34.40;19.90;;;;;;;14.18;58.48;101947.44;5117119;28;20082;-69
2021/12/14 02:54:20;;;;;;;35.10;20.50;;;;;;;13.93;58.93;101943.28;5118904;27;20129;-70
2021/12/14 02:56:56;;;;;;;32.08;19.15;;;;;;;14.03;58.23;101939.69;5116294;28;20368;-70
2021/12/14 02:59:29;;;;;;;38.42;19.80;;;;;;;14.07;57.53;101937.63;5097806;28;20054;-69
2021/12/14 03:02:03;;;;;;;29.35;18.58;;;;;;;14.16;58.05;101935.97;5116026;28;20044;-70
2021/12/14 03:04:32;;;;;;;30.98;19.48;;;;;;;13.96;58.87;101933.16;5116846;28;20047;-69
2021/12/14 03:07:00;;;;;;;37.05;20.38;;;;;;;13.78;59.04;101929.28;5115877;28;20122;-70
2021/12/14 03:09:38;;;;;;;35.35;19.60;;;;;;;13.88;59.08;101927.53;5115969;28;20470;-69
2021/12/14 03:12:14;;;;;;;34.35;19.33;;;;;;;13.82;58.73;101924.50;5117009;28;20067;-70
2021/12/14 03:14:48;;;;;;;33.58;19.65;;;;;;;13.95;58.66;101928.75;5115554;28;20070;-70
2021/12/14 03:17:15;;;;;;;32.80;18.60;;;;;;;13.86;58.11;101923.31;5114751;28;20381;-69
2021/12/14 03:19:42;;;;;;;34.00;18.92;;;;;;;13.75;58.57;101926.84;5114890;28;20047;-70
2021/12/14 03:22:32;;;;;;;32.67;18.92;;;;;;;13.88;58.63;101918.66;5116096;28;20107;-70
2021/12/14 03:24:59;;;;;;;31.42;18.67;;;;;;;13.63;59.09;101911.78;5116201;28;20067;-69
2021/12/14 03:27:26;;;;;;;30.52;17.92;;;;;;;13.54;59.58;101921.41;5115195;28;20452;-70
2021/12/14 03:29:53;;;;;;;29.00;18.10;;;;;;;13.54;59.45;101919.59;5116448;28;20128;-70
2021/12/14 03:32:20;;;;;;;30.05;17.38;;;;;;;13.44;59.75;101920.44;5116158;28;20067;-70
2021/12/14 03:34:47;;;;;;;30.23;17.38;;;;;;;13.26;59.90;101912.91;5117171;28;20508;-71
2021/12/14 03:37:22;;;;;;;30.90;18.40;;;;;;;13.28;60.39;101910.13;5117065;28;20462;-70
2021/12/14 03:39:52;;;;;;;29.73;17.55;;;;;;;13.51;59.97;101917.16;5116587;28;20055;-71
2021/12/14 03:42:27;;;;;;;29.33;17.90;;;;;;;13.60;59.24;101909.34;5115778;28;20135;-70
2021/12/14 03:44:57;;;;;;;31.23;18.30;;;;;;;13.61;58.62;101913.72;5115625;28;20055;-72
2021/12/14 03:47:35;;;;;;;29.15;17.25;;;;;;;13.60;58.84;101904.84;5116645;28;20047;-69
2021/12/14 03:50:09;;;;;;;31.48;16.85;;;;;;;13.54;58.57;101906.22;5116223;28;20398;-70
2021/12/14 03:52:38;;;;;;;30.70;18.60;;;;;;;13.59;58.40;101902.28;5117076;28;20047;-70
2021/12/14 03:55:21;;;;;;;34.00;18.25;;;;;;;13.88;57.50;101898.06;5114791;28;20465;-69
2021/12/14 03:57:48;;;;;;;37.53;17.55;;;;;;;13.57;58.76;101891.69;5112589;28;20067;-70
2021/12/14 04:00:24;;;;;;;32.75;17.75;;;;;;;13.75;58.03;101892.00;5116971;28;20096;-70
2021/12/14 04:02:52;;;;;;;30.35;17.35;;;;;;;13.84;58.12;101890.41;5115531;28;20131;-69
2021/12/14 04:05:20;;;;;;;32.78;17.67;;;;;;;13.49;58.69;101884.28;5115604;28;20403;-69
2021/12/14 04:07:48;;;;;;;29.58;17.13;;;;;;;13.38;59.35;101878.94;5115655;28;20127;-69
2021/12/14 04:10:21;;;;;;;28.60;17.42;;;;;;;13.42;59.11;101872.38;5115068;28;20094;-69
2021/12/14 04:12:50;;;;;;;30.48;16.55;;;;;;;13.17;59.68;101870.78;5115489;28;20047;-69
2021/12/14 04:15:16;;;;;;;30.98;18.00;;;;;;;13.41;58.82;101868.00;5117188;28;20044;-69
2021/12/14 04:17:43;;;;;;;30.95;18.20;;;;;;;13.52;58.85;101857.25;5115850;28;20063;-69
2021/12/14 04:20:18;;;;;;;30.48;18.10;;;;;;;13.60;58.71;101848.56;5115127;28;20066;-69
2021/12/14 04:22:48;;;;;;;32.17;18.17;;;;;;;13.23;59.43;101843.53;5116915;28;20059;-69
2021/12/14 04:25:19;;;;;;;28.65;17.73;;;;;;;13.06;59.33;101844.88;5115219;28;20452;-69
2021/12/14 04:27:47;;;;;;;27.98;16.88;;;;;;;13.17;59.35;101835.97;5115882;28;20047;-69
2021/12/14 04:30:17;;;;;;;30.58;18.05;;;;;;;13.39;59.17;101837.78;5116038;28;20051;-69
2021/12/14 04:32:49;;;;;;;38.30;18.90;;;;;;;13.14;60.21;101846.09;5115198;28;20074;-69
2021/12/14 04:35:17;;;;;;;34.70;17.92;;;;;;;13.40;59.01;101844.00;5114934;28;20096;-69
2021/12/14 04:37:49;;;;;;;34.63;18.98;;;;;;;13.48;58.87;101837.06;5114859;28;20126;-69
2021/12/14 04:51:53;;;;;;;34.58;19.48;;;;;;;13.33;58.50;101830.25;5113753;28;20051;-69
2021/12/14 04:51:57;;;;;;;38.10;20.88;;;;;;;13.56;58.25;101833.72;5113145;28;20436;-71
2021/12/14 04:54:41;;;;;;;34.20;18.60;;;;;;;13.36;58.76;101837.19;5112130;28;20090;-70
2021/12/14 04:57:27;;;;;;;33.17;18.70;;;;;;;13.38;58.89;101835.25;5109760;28;20095;-70
2021/12/14 04:59:56;;;;;;;35.17;19.20;;;;;;;13.45;57.79;101848.00;5102394;28;20542;-71
2021/12/14 05:02:28;;;;;;;32.22;19.17;;;;;;;13.60;57.04;101839.69;5114030;28;20518;-71
2021/12/14 05:04:56;;;;;;;;;;;;;;;13.28;58.39;101837.81;5096069;28;20039;-70
2021/12/14 05:07:28;;;;;;;35.33;19.10;;;;;;;13.72;57.17;101846.72;5112207;28;19926;-70
2021/12/14 05:09:55;;;;;;;34.38;17.70;;;;;;;13.52;57.56;101851.88;5112006;28;20048;-71
2021/12/14 05:12:28;;;;;;;32.97;18.65;;;;;;;13.95;56.60;101856.34;5111585;27;20482;-70
2021/12/14 05:14:55;;;;;;;32.17;17.63;;;;;;;13.78;56.73;101859.59;5113801;28;20063;-70
2021/12/14 05:17:24;;;;;;;30.83;17.92;;;;;;;13.45;57.26;101858.72;5112872;28;20162;-71
2021/12/14 05:19:53;;;;;;;41.03;18.95;;;;;;;13.57;57.31;101864.91;5112371;28;20040;-71
2021/12/14 05:22:24;;;;;;;30.33;17.63;;;;;;;13.59;57.03;101870.16;5096890;28;20166;-69
2021/12/14 05:24:55;;;;;;;29.40;16.35;;;;;;;13.53;57.16;101876.84;5114974;28;20057;-69
2021/12/14 05:27:29;;;;;;;32.35;17.45;;;;;;;13.70;56.73;101883.50;5115109;28;20071;-71
2021/12/14 05:30:10;;;;;;;33.08;17.20;;;;;;;13.76;56.29;101883.00;5114365;28;20071;-71
2021/12/14 05:32:37;;;;;;;34.35;18.30;;;;;;;13.92;56.27;101877.22;5096746;28;20066;-70
2021/12/14 05:35:05;;;;;;;31.45;17.42;;;;;;;13.59;57.39;101881.72;5115338;28;20055;-70
2021/12/14 05:37:35;;;;;;;34.03;17.45;;;;;;;13.44;57.46;101873.09;5113599;28;20039;-70
2021/12/14 05:40:06;;;;;;;34.28;18.25;;;;;;;13.76;56.53;101873.13;5113940;28;20135;-70
2021/12/14 05:45:22;;;;;;;35.47;16.80;;;;;;;13.05;58.36;101877.09;5116202;28;20068;-70
2021/12/14 05:47:53;;;;;;;34.42;15.60;;;;;;;13.45;57.44;101877.47;5118526;28;20063;-71
2021/12/14 05:50:27;;;;;;;28.73;16.58;;;;;;;13.69;56.50;101874.63;5117436;28;20062;-71
2021/12/14 05:52:56;;;;;;;33.25;16.77;;;;;;;13.29;57.18;101879.69;5118166;28;20043;-71
2021/12/14 05:55:25;;;;;;;29.88;17.30;;;;;;;13.76;56.54;101874.97;5117130;28;20134;-70
2021/12/14 05:57:54;;;;;;;32.30;17.05;;;;;;;13.84;56.53;101871.66;5116449;28;20066;-71
2021/12/14 06:00:21;;;;;;;33.42;17.75;;;;;;;13.69;56.31;101866.59;5116444;28;20054;-71
2021/12/14 06:02:48;;;;;;;33.20;17.15;;;;;;;14.08;55.62;101868.75;5118232;28;20131;-71
2021/12/14 06:05:18;;;;;;;30.65;17.27;;;;;;;13.87;55.59;101869.56;5117063;28;20048;-70
2021/12/14 06:07:45;;;;;;;27.85;17.15;;;;;;;13.88;55.64;101871.25;5117354;28;20119;-70
2021/12/14 06:10:13;;;;;;;29.50;16.25;;;;;;;13.13;57.73;101865.78;5117254;28;20059;-70
2021/12/14 06:12:41;;;;;;;32.45;17.02;;;;;;;13.76;56.67;101866.94;5116380;28;20055;-69
2021/12/14 06:15:16;;;;;;;29.33;16.15;;;;;;;13.63;56.68;101871.59;5117412;28;20040;-71
2021/12/14 06:17:43;;;;;;;30.08;16.45;;;;;;;13.85;56.03;101876.88;5117272;28;20127;-70
2021/12/14 06:20:14;;;;;;;30.73;17.77;;;;;;;13.72;56.37;101870.84;5118321;28;20089;-69
2021/12/14 06:22:42;;;;;;;31.77;15.88;;;;;;;13.73;56.05;101857.31;5118963;28;20066;-70
2021/12/14 06:25:14;;;;;;;30.38;17.02;;;;;;;13.13;57.75;101863.09;5116113;27;20069;-69
2021/12/14 06:27:42;;;;;;;33.03;16.77;;;;;;;13.22;57.79;101860.53;5117652;28;20063;-69
2021/12/14 06:30:12;;;;;;;26.83;16.08;;;;;;;13.37;57.16;101855.84;5117885;28;20058;-70
2021/12/14 06:32:44;;;;;;;30.25;16.55;;;;;;;13.37;57.24;101852.28;5117921;28;20093;-69
2021/12/14 06:35:12;;;;;;;;;;;;;;;12.87;58.73;101843.78;5117426;27;20059;-69
2021/12/14 06:40:35;;;;;;;35.30;17.63;;;;;;;12.81;58.62;101837.94;5117498;28;20509;-69
2021/12/14 06:43:08;;;;;;;33.88;17.48;;;;;;;13.19;58.23;101843.88;5118174;28;20040;-69
2021/12/14 06:45:42;;;;;;;32.00;16.48;;;;;;;13.16;58.02;101846.81;5117015;28;20043;-70
2021/12/14 06:48:20;;;;;;;31.25;16.10;;;;;;;12.79;58.73;101847.06;5118044;28;20036;-69
2021/12/14 06:50:52;;;;;;;32.13;17.48;;;;;;;12.96;58.95;101838.56;5117181;28;20105;-69
2021/12/14 06:53:20;;;;;;;30.85;16.38;;;;;;;13.70;56.47;101840.63;5112325;28;20436;-69
2021/12/14 06:55:53;;;;;;;32.67;17.48;;;;;;;13.10;57.64;101845.47;5116135;28;20073;-69
2021/12/14 06:58:30;;;;;;;30.90;16.80;;;;;;;13.14;58.36;101846.09;5118386;28;20126;-69
2021/12/14 07:01:19;;;;;;;28.55;15.80;;;;;;;12.69;58.95;101840.75;5117679;28;20066;-69
2021/12/14 07:03:51;;;;;;;28.48;16.65;;;;;;;13.02;58.62;101840.75;5114496;28;20119;-69
2021/12/14 07:06:29;;;;;;;31.15;16.48;;;;;;;12.72;59.15;101840.50;5116215;28;20067;-69
2021/12/14 07:09:04;;;;;;;30.05;17.25;;;;;;;13.31;57.22;101834.91;5117408;28;20127;-69
2021/12/14 07:11:30;;;;;;;32.20;16.15;;;;;;;13.82;55.93;101844.97;5096740;28;20071;-69
2021/12/14 07:13:57;;;;;;;27.83;15.77;;;;;;;12.67;58.91;101838.16;5116632;28;20078;-69
2021/12/14 07:16:32;;;;;;;27.75;15.23;;;;;;;12.84;58.47;101853.75;5117572;28;20398;-69
2021/12/14 07:19:04;;;;;;;31.15;16.13;;;;;;;12.90;58.71;101857.78;5116885;28;20051;-69
2021/12/14 07:21:40;;;;;;;28.77;15.75;;;;;;;13.04;57.91;101857.53;5117371;28;20074;-69
2021/12/14 07:24:22;;;;;;;29.70;16.55;;;;;;;13.20;57.73;101864.34;5117264;28;20070;-70
2021/12/14 07:27:13;;;;;;;29.67;16.77;;;;;;;13.15;57.76;101871.88;5117048;28;20074;-69
2021/12/14 07:29:40;;;;;;;22.40;12.32;;;;;;;13.42;57.03;101875.03;5116330;28;20067;-70
2021/12/14 07:32:07;;;;;;;29.20;16.48;;;;;;;13.30;57.55;101873.34;5118908;28;20108;-71
2021/12/14 07:34:33;;;;;;;31.77;16.40;;;;;;;12.91;57.99;101875.53;5116132;28;20130;-69
2021/12/14 07:37:00;;;;;;;31.25;16.20;;;;;;;13.17;57.37;101873.47;5115927;28;20178;-69
2021/12/14 07:39:27;;;;;;;29.38;16.20;;;;;;;12.98;57.49;101875.91;5114896;28;20055;-69
2021/12/14 07:41:58;;;;;;;24.92;15.20;;;;;;;13.37;57.14;101873.69;5116596;28;20512;-68
2021/12/14 07:44:34;;;;;;;30.70;14.90;;;;;;;13.20;57.80;101877.72;5116744;28;20093;-69
2021/12/14 07:47:15;;;;;;;27.55;15.23;;;;;;;13.62;56.55;101875.25;5114356;27;20063;-69
2021/12/14 07:49:54;;;;;;;30.02;16.23;;;;;;;13.57;55.89;101878.28;5103806;28;20059;-68
2021/12/14 07:52:32;;;;;;;33.47;16.80;;;;;;;13.38;56.75;101886.97;5101205;28;20043;-69
2021/12/14 07:55:05;;;;;;;29.98;16.27;;;;;;;13.56;56.33;101882.81;5116695;28;20103;-69
2021/12/14 07:57:35;;;;;;;27.92;14.98;;;;;;;13.37;56.60;101893.31;5116310;28;20071;-69
2021/12/14 08:00:13;;;;;;;28.77;15.77;;;;;;;13.51;56.19;101885.03;5116553;28;20063;-69
2021/12/14 08:02:45;;;;;;;28.75;16.13;;;;;;;13.68;55.85;101886.31;5117005;28;20132;-69
2021/12/14 08:05:20;;;;;;;25.80;15.55;;;;;;;13.58;56.17;101890.72;5114321;28;20139;-70
2021/12/14 08:07:53;;;;;;;27.40;15.98;;;;;;;13.48;56.03;101893.31;5103370;28;20036;-69
2021/12/14 08:10:30;;;;;;;29.50;16.38;;;;;;;13.89;55.27;101889.06;5116417;28;20047;-69
2021/12/14 08:13:15;;;;;;;27.85;15.30;;;;;;;13.55;55.96;101881.09;5076832;28;20051;-68
2021/12/14 08:15:54;;;;;;;27.05;15.85;;;;;;;13.84;55.18;101885.91;5095664;28;20036;-69
2021/12/14 08:18:32;;;;;;;28.15;15.50;;;;;;;13.75;55.61;101887.53;5093654;28;20044;-69
2021/12/14 08:21:19;;;;;;;29.15;16.10;;;;;;;13.98;54.83;101888.28;5095814;28;20112;-69
2021/12/14 08:23:54;;;;;;;31.50;16.20;;;;;;;13.83;55.22;101892.25;5074881;28;20064;-68
2021/12/14 08:26:23;;;;;;;30.42;15.32;;;;;;;13.23;56.69;101894.41;5075265;28;20059;-68
2021/12/14 08:28:54;;;;;;;32.40;16.08;;;;;;;13.78;55.32;101908.69;5075849;28;20083;-68
2021/12/14 08:31:29;;;;;;;28.73;16.27;;;;;;;13.94;55.03;101910.97;5067891;28;20052;-69
2021/12/14 08:33:59;;;;;;;28.42;14.80;;;;;;;13.90;55.12;101912.19;5084441;28;20036;-69
2021/12/14 08:36:35;;;;;;;27.17;15.05;;;;;;;14.00;54.84;101909.63;5095256;28;20054;-69
2021/12/14 08:39:06;;;;;;;25.65;14.38;;;;;;;14.10;54.41;101912.34;5095155;28;20127;-69
2021/12/14 08:41:32;;;;;;;24.60;14.48;;;;;;;13.56;55.58;101914.94;5095624;28;20112;-69
2021/12/14 08:44:08;;;;;;;26.60;14.98;;;;;;;13.68;55.25;101910.44;5094047;28;20107;-70
2021/12/14 08:46:35;;;;;;;31.55;15.20;;;;;;;13.76;54.96;101918.69;5095210;28;20138;-69
2021/12/14 08:49:06;;;;;;;25.80;15.32;;;;;;;13.33;55.77;101913.28;5094611;28;20102;-69
2021/12/14 08:51:37;;;;;;;27.67;14.60;;;;;;;13.51;55.51;101927.03;5094388;28;20127;-69
2021/12/14 08:54:12;;;;;;;26.98;14.80;;;;;;;13.47;56.02;101925.56;5095011;28;20407;-69
2021/12/14 08:56:44;;;;;;;26.00;15.15;;;;;;;14.04;54.12;101936.03;5095343;28;20097;-69
2021/12/14 08:59:11;;;;;;;25.40;14.60;;;;;;;13.72;54.56;101922.59;5093640;28;20079;-69
2021/12/14 09:01:42;;;;;;;26.10;14.32;;;;;;;13.76;54.67;101921.38;5095247;28;20054;-69
2021/12/14 09:04:17;;;;;;;24.77;14.30;;;;;;;13.58;55.11;101909.47;5094319;28;20503;-69
2021/12/14 09:06:47;;;;;;;26.33;15.85;;;;;;;13.60;54.82;101910.19;5095047;28;20077;-69
2021/12/14 09:09:17;;;;;;;27.42;15.35;;;;;;;13.67;54.94;101902.50;5093987;28;20135;-69
2021/12/14 09:11:47;;;;;;;25.20;14.65;;;;;;;13.49;55.27;101904.88;5103651;28;20122;-69
2021/12/14 09:14:17;;;;;;;24.30;14.52;;;;;;;13.48;55.80;101901.34;5115290;28;20071;-70
2021/12/14 09:16:47;;;;;;;26.23;14.55;;;;;;;13.88;54.61;101892.69;5114358;28;20126;-70
2021/12/14 09:19:24;;;;;;;25.20;15.32;;;;;;;13.76;54.73;101901.75;5114607;28;20501;-69
2021/12/14 09:21:54;;;;;;;29.63;14.55;;;;;;;13.86;54.30;101910.75;5114192;28;20046;-69
2021/12/14 09:24:25;;;;;;;23.17;14.00;;;;;;;13.80;54.55;101903.22;5115128;28;20039;-68
2021/12/14 09:26:59;;;;;;;24.08;13.90;;;;;;;13.70;54.78;101894.22;5114912;28;20131;-69
2021/12/14 09:29:27;;;;;;;25.52;14.82;;;;;;;13.12;56.10;101902.41;5113703;28;20110;-69
2021/12/14 09:31:56;;;;;;;27.02;14.02;;;;;;;13.39;55.98;101901.22;5113514;28;20071;-69
2021/12/14 09:34:26;;;;;;;24.52;14.10;;;;;;;13.48;55.53;101892.47;5114947;28;20051;-69
2021/12/14 09:36:53;;;;;;;22.83;14.60;;;;;;;13.69;54.68;101889.84;5113878;28;20409;-69
2021/12/14 09:39:25;;;;;;;24.90;14.07;;;;;;;14.14;53.25;101887.84;5114910;28;20127;-70
2021/12/14 09:41:53;;;;;;;22.95;14.45;;;;;;;13.94;53.69;101888.66;5113935;28;20074;-69
2021/12/14 09:44:30;;;;;;;25.15;13.93;;;;;;;14.01;53.62;101885.34;5113900;28;20067;-69
2021/12/14 09:46:59;;;;;;;26.25;13.75;;;;;;;13.78;54.11;101881.88;5114405;28;20036;-70
2021/12/14 09:49:27;;;;;;;24.55;14.23;;;;;;;13.83;54.07;101881.53;5114900;28;20092;-70
2021/12/14 09:52:00;;;;;;;21.95;14.27;;;;;;;13.86;53.80;101875.06;5114787;28;20074;-71
2021/12/14 09:54:28;;;;;;;22.45;12.82;;;;;;;13.44;54.82;101878.47;5119475;28;20040;-74
2021/12/14 09:57:03;;;;;;;23.65;14.40;;;;;;;13.87;53.92;101880.28;5119696;28;20468;-72
2021/12/14 09:59:30;;;;;;;22.50;12.82;;;;;;;14.15;53.06;101875.28;5118562;28;20048;-72
2021/12/14 10:02:09;;;;;;;23.05;13.35;;;;;;;13.71;54.64;101880.69;5118280;28;20060;-72
2021/12/14 10:04:42;;;;;;;23.17;14.23;;;;;;;13.95;53.76;101880.47;5119519;28;20058;-72
2021/12/14 10:07:09;;;;;;;22.90;14.02;;;;;;;13.85;54.21;101882.22;5117641;28;20067;-71
2021/12/14 10:09:44;;;;;;;25.75;13.57;;;;;;;13.93;53.59;101885.16;5117543;28;20106;-72
2021/12/14 10:15:24;;;;;;;23.15;14.52;;;;;;;14.20;52.82;101873.06;5112896;28;20074;-72
2021/12/14 10:17:54;;;;;;;26.30;14.35;;;;;;;13.64;54.09;101876.81;5106223;28;20131;-72
2021/12/14 10:20:32;;;;;;;22.38;13.60;;;;;;;13.42;54.37;101869.69;5116176;28;20073;-72
2021/12/14 10:23:00;;;;;;;26.48;14.85;;;;;;;13.57;54.62;101865.75;5114883;28;20059;-72
2021/12/14 10:25:28;;;;;;;23.23;13.75;;;;;;;13.20;55.91;101853.63;5117157;28;20039;-71
2021/12/14 10:27:55;;;;;;;22.77;14.60;;;;;;;12.98;55.94;101852.66;5119955;28;20056;-72
2021/12/14 10:30:34;;;;;;;18.77;12.98;;;;;;;13.14;55.90;101848.75;5122481;28;20039;-71
2021/12/14 10:33:02;;;;;;;19.55;13.40;;;;;;;13.23;55.42;101848.00;5120032;28;20111;-71
2021/12/14 10:35:37;;;;;;;19.95;13.48;;;;;;;13.47;54.95;101855.91;5122443;28;20070;-71
2021/12/14 10:38:23;;;;;;;24.00;14.18;;;;;;;13.64;54.18;101862.56;5120107;28;20047;-71
2021/12/14 10:43:46;;;;;;;20.73;13.73;;;;;;;13.37;54.48;101858.50;5118468;28;20132;-72
2021/12/14 10:46:22;;;;;;;22.95;13.82;;;;;;;13.92;54.20;101859.28;5119674;28;20040;-72
2021/12/14 10:48:51;;;;;;;22.20;13.65;;;;;;;13.70;54.39;101856.72;5121282;28;20043;-71
2021/12/14 10:51:22;;;;;;;24.38;13.23;;;;;;;13.99;53.38;101857.84;5120650;28;20054;-72
2021/12/14 10:53:52;;;;;;;21.38;13.85;;;;;;;14.22;52.51;101860.38;5122633;28;20096;-72
2021/12/14 10:56:40;;;;;;;31.05;16.75;;;;;;;14.38;52.58;101855.44;5099520;28;20042;-72
2021/12/14 10:59:12;;;;;;;25.92;15.38;;;;;;;14.20;52.75;101844.44;5121713;28;20050;-72
2021/12/14 11:01:40;;;;;;;23.42;14.68;;;;;;;14.35;52.34;101841.44;5121699;28;20091;-72
2021/12/14 11:04:12;;;;;;;24.45;14.00;;;;;;;14.12;53.01;101832.66;5121641;28;20077;-72
2021/12/14 11:06:42;;;;;;;21.63;14.40;;;;;;;14.13;52.80;101843.25;5121824;28;20043;-72
2021/12/14 11:09:45;;;;;;;25.08;14.73;;;;;;;14.04;52.71;101842.19;5120811;28;20119;-72
2021/12/14 11:12:29;;;;;;;26.00;13.38;;;;;;;14.26;51.74;101838.53;5115395;28;20047;-72
2021/12/14 11:15:03;;;;;;;20.85;12.18;;;;;;;14.48;51.54;101842.06;5119710;28;20104;-72
2021/12/14 11:20:28;;;;;;;19.92;13.00;;;;;;;14.83;50.48;101844.41;5120439;28;20101;-72
2021/12/14 11:23:26;;;;;;;19.55;13.55;;;;;;;14.21;51.92;101848.81;5119097;28;20070;-72
2021/12/14 11:26:07;;;;;;;18.70;11.60;;;;;;;14.12;52.09;101848.72;5119393;28;20476;-72
2021/12/14 11:28:41;;;;;;;20.42;12.35;;;;;;;14.56;51.05;101834.25;5106383;28;20075;-72
2021/12/14 11:31:18;;;;;;;20.63;12.40;;;;;;;14.64;50.58;101841.63;5120521;28;20073;-71
2021/12/14 11:33:57;;;;;;;22.30;13.90;;;;;;;14.06;51.78;101838.53;5122357;28;20043;-71
2021/12/14 11:36:32;;;;;;;19.05;11.90;;;;;;;14.08;52.11;101836.56;5120077;28;20063;-71
2021/12/14 11:39:10;;;;;;;21.17;11.57;;;;;;;13.93;51.66;101834.22;5119269;28;20097;-71
2021/12/14 11:41:50;;;;;;;19.55;11.93;;;;;;;14.24;51.33;101828.94;5120487;28;20070;-71
2021/12/14 11:44:36;;;;;;;23.38;12.27;;;;;;;14.06;51.49;101825.97;5121664;28;20081;-71
2021/12/14 11:47:09;;;;;;;16.85;10.48;;;;;;;14.53;50.45;101833.66;5121246;28;20067;-72
2021/12/14 11:49:47;;;;;;;23.33;11.77;;;;;;;14.63;50.51;101827.34;5120988;28;20043;-71
2021/12/14 11:52:51;;;;;;;19.27;12.07;;;;;;;14.70;50.32;101824.97;5119591;28;20051;-71
2021/12/14 11:55:33;;;;;;;18.10;11.13;;;;;;;13.97;51.63;101830.28;5119780;28;20046;-71
2021/12/14 11:58:17;;;;;;;21.38;13.25;;;;;;;14.86;49.76;101841.44;5119579;28;20050;-71
2021/12/14 12:00:55;;;;;;;30.05;11.88;;;;;;;14.97;49.55;101830.63;5120661;28;20067;-71
2021/12/14 12:03:34;;;;;;;16.33;11.13;;;;;;;13.84;51.96;101834.13;5119259;27;20063;-71
2021/12/14 12:06:14;;;;;;;19.75;11.98;;;;;;;15.03;49.21;101831.03;5118882;28;20487;-71
2021/12/14 12:11:38;;;;;;;18.73;12.53;;;;;;;15.11;49.28;101833.91;5099949;28;20040;-71